createdAt,value
2022-11-23T00:02:24.672Z,19.47
2022-11-23T00:05:31.113Z,21.50
2022-11-23T00:08:34.102Z,16.73
2022-11-23T00:11:37.364Z,18.57
2022-11-23T00:14:40.328Z,17.97
2022-11-23T00:17:43.302Z,17.23
2022-11-23T00:20:47.605Z,19.03
2022-11-23T00:23:51.185Z,20.97
2022-11-23T00:26:54.123Z,19.57
2022-11-23T00:29:57.071Z,14.23
2022-11-23T00:33:00.101Z,21.63
2022-11-23T00:36:07.083Z,17.47
2022-11-23T00:39:10.036Z,16.40
2022-11-23T00:42:12.972Z,19.30
2022-11-23T00:45:16.061Z,16.93
2022-11-23T00:48:19.042Z,19.80
2022-11-23T00:51:25.635Z,14.33
2022-11-23T00:54:28.572Z,18.93
2022-11-23T00:57:31.523Z,14.60
2022-11-23T01:00:34.500Z,20.60
2022-11-23T01:03:38.771Z,17.37
2022-11-23T01:06:43.069Z,18.17
2022-11-23T01:09:46.040Z,16.33
2022-11-23T01:12:48.972Z,15.30
2022-11-23T01:15:52.395Z,16.20
2022-11-23T01:18:56.230Z,19.00
2022-11-23T01:22:00.533Z,17.97
2022-11-23T01:25:03.621Z,18.53
2022-11-23T01:28:06.658Z,14.87
2022-11-23T01:31:11.791Z,16.43
2022-11-23T01:34:15.229Z,16.43
2022-11-23T01:37:19.513Z,16.07
2022-11-23T01:40:22.950Z,13.93
2022-11-23T01:43:25.962Z,15.47
2022-11-23T01:46:28.911Z,14.73
2022-11-23T01:49:36.797Z,14.10
2022-11-23T01:52:41.088Z,18.40
2022-11-23T01:55:44.939Z,15.23
2022-11-23T01:58:50.966Z,14.07
2022-11-23T02:01:54.083Z,20.50
2022-11-23T02:05:00.045Z,14.97
2022-11-23T02:08:05.140Z,16.33
2022-11-23T02:11:08.499Z,15.70
2022-11-23T02:14:11.671Z,13.70
2022-11-23T02:17:14.964Z,11.83
2022-11-23T02:20:19.681Z,15.73
2022-11-23T02:23:33.817Z,14.70
2022-11-23T02:26:38.324Z,15.67
2022-11-23T02:29:41.573Z,14.97
2022-11-23T02:32:44.992Z,19.10
2022-11-23T02:35:50.495Z,15.93
2022-11-23T02:38:54.566Z,14.30
2022-11-23T02:41:59.797Z,14.67
2022-11-23T02:45:15.093Z,13.83
2022-11-23T02:48:18.081Z,12.33
2022-11-23T02:51:21.028Z,16.57
2022-11-23T02:54:24.095Z,15.20
2022-11-23T02:57:28.394Z,12.77
2022-11-23T03:00:31.724Z,14.53
2022-11-23T03:03:34.895Z,14.90
2022-11-23T03:06:37.939Z,16.23
2022-11-23T03:09:41.207Z,12.30
2022-11-23T03:12:45.520Z,14.87
2022-11-23T03:15:48.480Z,14.40
2022-11-23T03:18:51.993Z,13.93
2022-11-23T03:21:54.940Z,14.97
2022-11-23T03:24:58.810Z,12.30
2022-11-23T03:28:03.117Z,15.13
2022-11-23T03:31:06.417Z,14.43
2022-11-23T03:34:10.742Z,13.40
2022-11-23T03:37:13.688Z,14.63
2022-11-23T03:40:16.863Z,14.60
2022-11-23T03:43:21.422Z,12.23
2022-11-23T03:46:24.389Z,11.63
2022-11-23T03:49:27.315Z,14.70
2022-11-23T03:52:30.252Z,13.00
2022-11-23T03:55:33.692Z,15.40
2022-11-23T03:58:37.980Z,13.90
2022-11-23T04:01:40.944Z,13.40
2022-11-23T04:04:43.909Z,14.03
2022-11-23T04:07:48.041Z,12.23
2022-11-23T04:10:51.061Z,9.77
2022-11-23T04:13:55.348Z,12.90
2022-11-23T04:16:58.498Z,13.67
2022-11-23T04:20:01.431Z,12.70
2022-11-23T04:23:07.137Z,11.03
2022-11-23T04:26:13.389Z,10.17
2022-11-23T04:29:17.706Z,12.80
2022-11-23T04:32:20.731Z,13.50
2022-11-23T04:35:23.905Z,12.77
2022-11-23T04:38:26.864Z,11.97
2022-11-23T04:41:29.819Z,12.23
2022-11-23T04:44:34.149Z,9.60
2022-11-23T04:47:37.077Z,13.23
2022-11-23T04:50:42.420Z,11.67
2022-11-23T04:53:46.699Z,11.20
2022-11-23T04:56:49.732Z,10.67
2022-11-23T04:59:54.050Z,13.30
2022-11-23T05:02:59.548Z,12.87
2022-11-23T05:06:02.589Z,9.20
2022-11-23T05:09:05.572Z,10.97
2022-11-23T05:12:08.850Z,12.77
2022-11-23T05:15:14.291Z,10.67
2022-11-23T05:18:17.274Z,10.53
2022-11-23T05:21:20.249Z,10.33
2022-11-23T05:24:23.165Z,10.30
2022-11-23T05:27:26.162Z,13.03
2022-11-23T05:30:30.489Z,12.37
2022-11-23T05:33:33.510Z,14.43
2022-11-23T05:36:40.811Z,10.73
2022-11-23T05:39:45.091Z,11.80
2022-11-23T05:42:48.038Z,12.40
2022-11-23T05:45:52.317Z,10.77
2022-11-23T05:48:55.298Z,10.33
2022-11-23T05:51:58.421Z,12.77
2022-11-23T05:55:01.342Z,11.23
2022-11-23T05:58:04.366Z,10.53
2022-11-23T06:01:08.748Z,11.73
2022-11-23T06:04:11.719Z,15.33
2022-11-23T06:07:14.766Z,13.30
2022-11-23T06:10:17.821Z,11.43
2022-11-23T06:13:20.830Z,12.97
2022-11-23T06:16:25.624Z,9.97
2022-11-23T06:19:30.332Z,9.27
2022-11-23T06:22:33.725Z,9.67
2022-11-23T06:25:38.598Z,10.40
2022-11-23T06:28:41.607Z,10.20
2022-11-23T06:31:46.286Z,14.07
2022-11-23T06:34:49.198Z,10.00
2022-11-23T06:37:53.650Z,9.60
2022-11-23T06:40:59.707Z,11.10
2022-11-23T06:44:02.689Z,11.23
2022-11-23T06:47:07.028Z,10.07
2022-11-23T06:50:10.256Z,8.97
2022-11-23T06:53:13.220Z,9.67
2022-11-23T06:56:16.153Z,11.73
2022-11-23T06:59:19.101Z,9.40
2022-11-23T07:02:23.390Z,7.63
2022-11-23T07:05:26.382Z,7.60
2022-11-23T07:08:29.315Z,10.20
2022-11-23T07:11:32.246Z,10.47
2022-11-23T07:14:35.225Z,11.07
2022-11-23T07:17:41.927Z,9.93
2022-11-23T07:20:44.956Z,11.53
2022-11-23T07:23:47.902Z,7.70
2022-11-23T07:26:51.445Z,10.47
2022-11-23T07:29:54.392Z,11.13
2022-11-23T07:33:02.382Z,11.47
2022-11-23T07:36:05.717Z,8.37
2022-11-23T07:39:08.824Z,8.00
2022-11-23T07:42:31.518Z,9.63
2022-11-23T07:45:36.724Z,8.60
2022-11-23T07:48:41.036Z,9.03
2022-11-23T07:51:44.042Z,8.07
2022-11-23T07:54:47.182Z,8.77
2022-11-23T07:57:53.213Z,11.23
2022-11-23T08:00:56.321Z,10.43
2022-11-23T08:04:00.689Z,7.20
2022-11-23T08:07:03.954Z,9.67
2022-11-23T08:10:07.561Z,10.80
2022-11-23T08:13:10.515Z,8.93
2022-11-23T08:16:13.510Z,7.60
2022-11-23T08:19:18.082Z,7.07
2022-11-23T08:22:21.264Z,8.10
2022-11-23T08:25:24.447Z,6.33
2022-11-23T08:28:27.608Z,9.13
2022-11-23T08:31:30.665Z,8.67
2022-11-23T08:34:35.218Z,8.43
2022-11-23T08:37:38.239Z,11.43
2022-11-23T08:40:41.412Z,7.03
2022-11-23T08:43:44.329Z,7.67
2022-11-23T08:46:47.325Z,7.50
2022-11-23T08:49:51.613Z,6.87
2022-11-23T08:52:56.828Z,9.07
2022-11-23T08:56:01.713Z,9.63
2022-11-23T08:59:04.823Z,10.53
2022-11-23T09:02:07.829Z,6.50
2022-11-23T09:05:12.170Z,9.43
2022-11-23T09:08:16.408Z,10.37
2022-11-23T09:11:19.398Z,9.03
2022-11-23T09:14:23.270Z,6.07
2022-11-23T09:17:26.211Z,6.13
2022-11-23T09:20:30.703Z,7.20
2022-11-23T09:23:34.134Z,8.10
2022-11-23T09:26:37.639Z,6.63
2022-11-23T09:29:40.654Z,8.77
2022-11-23T09:32:43.768Z,6.90
2022-11-23T09:35:48.105Z,6.80
2022-11-23T09:38:56.623Z,4.13
2022-11-23T09:42:17.916Z,7.53
2022-11-23T09:45:28.346Z,5.07
2022-11-23T09:48:46.165Z,5.80
2022-11-23T09:51:55.880Z,5.03
2022-11-23T09:55:05.941Z,5.57
2022-11-23T09:58:14.708Z,8.90
2022-11-23T10:01:17.988Z,4.73
2022-11-23T10:04:21.637Z,7.10
2022-11-23T10:07:43.701Z,5.40
2022-11-23T10:10:54.917Z,6.63
2022-11-23T10:14:09.106Z,5.07
2022-11-23T10:17:23.309Z,4.83
2022-11-23T10:20:46.890Z,5.03
2022-11-23T10:23:56.628Z,8.63
2022-11-23T10:26:59.753Z,6.40
2022-11-23T10:30:02.904Z,6.07
2022-11-23T10:33:14.793Z,4.90
2022-11-23T10:36:17.759Z,6.10
2022-11-23T10:39:24.725Z,5.33
2022-11-23T10:42:33.438Z,4.33
2022-11-23T10:45:37.495Z,5.07
2022-11-23T10:48:40.424Z,4.13
2022-11-23T10:51:51.281Z,5.73
2022-11-23T10:54:57.297Z,4.73
2022-11-23T10:58:00.932Z,8.57
2022-11-23T11:01:06.041Z,3.53
2022-11-23T11:04:25.666Z,3.93
2022-11-23T11:07:30.634Z,4.77
2022-11-23T11:10:41.166Z,4.30
2022-11-23T11:13:46.813Z,3.33
2022-11-23T11:16:51.506Z,4.00
2022-11-23T11:19:54.619Z,4.20
2022-11-23T11:22:58.954Z,4.47
2022-11-23T11:26:10.971Z,4.03
2022-11-23T11:29:36.837Z,3.40
2022-11-23T11:32:46.581Z,4.67
2022-11-23T11:35:52.952Z,5.47
2022-11-23T11:39:17.581Z,3.93
2022-11-23T11:42:31.309Z,3.50
2022-11-23T11:45:39.041Z,5.63
2022-11-23T11:48:46.914Z,5.23
2022-11-23T11:51:55.455Z,3.57
2022-11-23T11:55:06.395Z,4.50
2022-11-23T11:58:14.403Z,4.13
2022-11-23T12:01:26.211Z,4.87
2022-11-23T12:04:38.319Z,4.93
2022-11-23T12:07:50.134Z,5.00
2022-11-23T12:10:55.230Z,2.93
2022-11-23T12:14:02.870Z,5.83
2022-11-23T12:17:39.721Z,5.70
2022-11-23T12:20:43.983Z,5.93
2022-11-23T12:23:56.958Z,3.77
2022-11-23T12:27:07.799Z,2.87
2022-11-23T12:30:26.100Z,5.10
2022-11-23T12:33:49.119Z,2.87
2022-11-23T12:37:05.217Z,4.83
2022-11-23T12:40:21.555Z,3.00
2022-11-23T12:43:36.324Z,3.23
2022-11-23T12:46:48.265Z,4.13
2022-11-23T12:49:56.046Z,3.57
2022-11-23T12:53:20.331Z,4.37
2022-11-23T12:56:44.934Z,3.83
2022-11-23T12:59:53.450Z,6.50
2022-11-23T13:03:26.732Z,6.27
2022-11-23T13:10:41.439Z,3.20
2022-11-23T13:14:02.373Z,3.57
2022-11-23T13:17:17.592Z,3.27
2022-11-23T13:20:49.846Z,2.57
2022-11-23T13:23:52.939Z,4.63
2022-11-23T13:27:41.352Z,4.00
2022-11-23T13:31:14.662Z,3.53
2022-11-23T13:34:45.015Z,5.57
2022-11-23T13:38:19.813Z,4.50
2022-11-23T13:42:05.094Z,3.47
2022-11-23T13:45:27.128Z,4.70
2022-11-23T13:52:07.117Z,2.17
2022-11-23T13:55:34.261Z,3.90
2022-11-23T13:58:41.321Z,1.97
2022-11-23T14:02:19.206Z,2.33
2022-11-23T14:05:56.914Z,2.43
2022-11-23T14:09:05.705Z,4.13
2022-11-23T14:12:18.689Z,3.53
2022-11-23T14:15:23.369Z,2.63
2022-11-23T14:18:43.947Z,3.57
2022-11-23T14:21:57.665Z,2.50
2022-11-23T14:25:18.134Z,3.40
2022-11-23T14:28:35.077Z,4.40
2022-11-23T14:31:50.333Z,2.53
2022-11-23T14:35:05.428Z,3.57
2022-11-23T14:38:42.319Z,4.37
2022-11-23T14:41:50.885Z,3.27
2022-11-23T14:44:57.029Z,4.03
2022-11-23T14:48:21.287Z,4.20
2022-11-23T14:51:26.460Z,3.23
2022-11-23T14:54:31.018Z,3.80
2022-11-23T14:57:41.637Z,2.73
2022-11-23T15:00:47.947Z,3.17
2022-11-23T15:03:58.494Z,3.90
2022-11-23T15:07:05.164Z,3.63
2022-11-23T15:10:18.929Z,4.83
2022-11-23T15:13:24.219Z,4.07
2022-11-23T15:16:28.689Z,3.40
2022-11-23T15:19:31.649Z,3.30
2022-11-23T15:22:36.986Z,4.77
2022-11-23T15:25:50.746Z,5.13
2022-11-23T15:28:53.744Z,3.57
2022-11-23T15:32:22.334Z,2.83
2022-11-23T15:35:24.058Z,2.97
2022-11-23T15:38:27.533Z,6.03
2022-11-23T15:41:31.781Z,4.37
2022-11-23T15:44:35.756Z,4.57
2022-11-23T15:47:40.099Z,4.23
2022-11-23T15:50:49.361Z,5.33
2022-11-23T15:53:53.753Z,5.77
2022-11-23T15:56:58.508Z,7.90
2022-11-23T16:00:03.632Z,3.53
2022-11-23T16:03:31.576Z,3.33
2022-11-23T16:06:39.372Z,6.20
2022-11-23T16:09:52.763Z,4.20
2022-11-23T16:12:58.152Z,3.30
2022-11-23T16:16:02.267Z,5.17
2022-11-23T16:19:20.645Z,4.10
2022-11-23T16:22:29.001Z,3.93
2022-11-23T16:25:34.084Z,4.30
2022-11-23T16:28:39.873Z,5.77
2022-11-23T16:31:52.455Z,4.33
2022-11-23T16:34:59.617Z,5.17
2022-11-23T16:38:02.602Z,6.50
2022-11-23T16:41:05.551Z,6.80
2022-11-23T16:44:08.543Z,5.00
2022-11-23T16:47:30.528Z,4.73
2022-11-23T16:50:35.516Z,3.57
2022-11-23T16:54:11.431Z,6.13
2022-11-23T16:57:01.925Z,5.77
2022-11-23T17:00:08.011Z,8.10
2022-11-23T17:03:13.803Z,5.13
2022-11-23T17:06:22.848Z,4.33
2022-11-23T17:09:25.788Z,6.00
2022-11-23T17:12:28.782Z,4.67
2022-11-23T17:15:31.801Z,5.47
2022-11-23T17:18:34.757Z,4.43
2022-11-23T17:21:39.162Z,3.77
2022-11-23T17:24:42.520Z,4.40
2022-11-23T17:27:46.493Z,5.27
2022-11-23T17:30:50.246Z,5.50
2022-11-23T17:33:53.221Z,6.53
2022-11-23T17:36:57.534Z,5.63
2022-11-23T17:40:00.494Z,5.30
2022-11-23T17:43:03.450Z,5.00
2022-11-23T17:46:06.970Z,6.07
2022-11-23T17:49:12.878Z,5.50
2022-11-23T17:52:17.237Z,5.77
2022-11-23T17:55:20.144Z,5.13
2022-11-23T17:58:23.082Z,4.30
2022-11-23T18:01:26.060Z,8.93
2022-11-23T18:04:29.086Z,7.67
2022-11-23T18:07:33.433Z,5.03
2022-11-23T18:10:36.419Z,4.67
2022-11-23T18:13:40.500Z,5.90
2022-11-23T18:16:43.404Z,6.07
2022-11-23T18:19:46.421Z,4.47
2022-11-23T18:22:50.742Z,7.00
2022-11-23T18:25:59.605Z,5.47
2022-11-23T18:29:03.113Z,4.23
2022-11-23T18:32:06.641Z,6.80
2022-11-23T18:35:10.664Z,5.97
2022-11-23T18:38:15.007Z,4.30
2022-11-23T18:41:18.245Z,8.53
2022-11-23T18:44:21.217Z,6.70
2022-11-23T18:47:24.183Z,5.07
2022-11-23T18:50:27.324Z,5.87
2022-11-23T18:53:33.161Z,6.57
2022-11-23T18:56:36.137Z,4.00
2022-11-23T18:59:57.445Z,3.87
2022-11-23T19:03:02.629Z,5.90
2022-11-23T19:06:06.963Z,7.97
2022-11-23T19:09:14.304Z,7.07
2022-11-23T19:12:17.515Z,7.40
2022-11-23T19:15:20.655Z,5.30
2022-11-23T19:18:23.637Z,6.13
2022-11-23T19:21:28.231Z,5.03
2022-11-23T19:24:32.493Z,8.67
2022-11-23T19:27:36.876Z,5.53
2022-11-23T19:30:39.834Z,6.93
2022-11-23T19:33:42.829Z,6.83
2022-11-23T19:36:45.863Z,5.10
2022-11-23T19:39:50.200Z,4.20
2022-11-23T19:42:53.116Z,5.17
2022-11-23T19:45:56.478Z,5.27
2022-11-23T19:48:59.841Z,5.03
2022-11-23T19:52:03.622Z,5.30
2022-11-23T19:55:09.070Z,6.00
2022-11-23T19:58:12.018Z,7.63
2022-11-23T20:01:16.789Z,3.67
2022-11-23T20:04:20.110Z,6.40
2022-11-23T20:07:23.147Z,8.03
2022-11-23T20:10:27.549Z,4.00
2022-11-23T20:13:30.843Z,4.03
2022-11-23T20:16:34.302Z,5.87
2022-11-23T20:19:37.327Z,5.13
2022-11-23T20:22:40.290Z,4.47
2022-11-23T20:25:44.830Z,5.13
2022-11-23T20:28:51.824Z,5.33
2022-11-23T20:31:54.894Z,4.20
2022-11-23T20:34:57.906Z,7.07
2022-11-23T20:38:00.877Z,5.83
2022-11-23T20:41:13.976Z,5.70
2022-11-23T20:44:16.985Z,5.67
2022-11-23T20:47:20.029Z,7.80
2022-11-23T20:50:25.111Z,6.77
2022-11-23T20:53:28.141Z,5.03
2022-11-23T20:56:32.963Z,6.03
2022-11-23T20:59:35.993Z,6.83
2022-11-23T21:02:39.018Z,8.07
2022-11-23T21:05:42.037Z,7.53
2022-11-23T21:08:46.970Z,5.53
2022-11-23T21:12:09.165Z,4.07
2022-11-23T21:15:12.419Z,5.90
2022-11-23T21:18:15.885Z,4.93
2022-11-23T21:21:18.820Z,6.87
2022-11-23T21:24:21.978Z,4.83
2022-11-23T21:27:28.154Z,6.60
2022-11-23T21:30:31.633Z,6.23
2022-11-23T21:33:34.765Z,7.17
2022-11-23T21:36:39.615Z,7.57
2022-11-23T21:39:44.600Z,4.23
2022-11-23T21:42:53.861Z,4.50
2022-11-23T21:46:00.934Z,6.53
2022-11-23T21:49:04.318Z,4.77
2022-11-23T21:52:09.013Z,4.53
2022-11-23T21:55:12.044Z,3.70
2022-11-23T21:58:16.317Z,7.07
2022-11-23T22:01:21.340Z,5.33
2022-11-23T22:04:24.757Z,3.27
2022-11-23T22:07:27.742Z,7.23
2022-11-23T22:10:31.054Z,5.93
2022-11-23T22:13:37.131Z,4.03
2022-11-23T22:16:41.804Z,5.77
2022-11-23T22:19:44.786Z,5.23
2022-11-23T22:22:47.864Z,7.03
2022-11-23T22:25:50.788Z,5.27
2022-11-23T22:28:56.009Z,6.73
2022-11-23T22:31:58.979Z,3.03
2022-11-23T22:35:01.952Z,6.67
2022-11-23T22:38:04.904Z,3.27
2022-11-23T22:41:09.642Z,3.27
2022-11-23T22:44:13.924Z,3.97
2022-11-23T22:47:16.938Z,3.73
2022-11-23T22:50:19.910Z,3.93
2022-11-23T22:53:22.917Z,4.20
2022-11-23T22:56:26.712Z,7.73
2022-11-23T22:59:31.044Z,4.93
2022-11-23T23:02:34.128Z,4.67
2022-11-23T23:05:37.170Z,6.73
2022-11-23T23:08:40.131Z,4.13
2022-11-23T23:11:43.122Z,7.57
2022-11-23T23:14:47.401Z,7.30
2022-11-23T23:17:50.393Z,3.83
2022-11-23T23:20:53.335Z,3.70
2022-11-23T23:23:59.110Z,6.70
2022-11-23T23:27:02.089Z,6.40
2022-11-23T23:30:07.447Z,4.50
2022-11-23T23:33:10.946Z,4.37
2022-11-23T23:36:16.201Z,4.57
2022-11-23T23:39:19.162Z,4.93
2022-11-23T23:42:22.114Z,5.50
2022-11-23T23:45:26.423Z,4.33
2022-11-23T23:48:30.773Z,4.83
2022-11-23T23:51:33.712Z,3.03
2022-11-23T23:54:36.714Z,5.43
2022-11-23T23:57:39.695Z,4.57
